createdAt,value
2022-12-26T00:02:04.503Z,11.80
2022-12-26T00:04:52.025Z,11.80
2022-12-26T00:07:17.751Z,11.90
2022-12-26T00:09:44.452Z,12.00
2022-12-26T00:12:11.005Z,12.10
2022-12-26T00:14:39.292Z,12.00
2022-12-26T00:17:05.886Z,12.20
2022-12-26T00:19:32.452Z,12.00
2022-12-26T00:21:59.212Z,12.00
2022-12-26T00:24:25.855Z,12.00
2022-12-26T00:26:52.418Z,12.00
2022-12-26T00:29:19.235Z,12.00
2022-12-26T00:31:46.816Z,12.00
2022-12-26T00:34:13.585Z,12.10
2022-12-26T00:36:40.270Z,12.10
2022-12-26T00:39:07.076Z,12.10
2022-12-26T00:41:33.767Z,12.10
2022-12-26T00:44:00.462Z,12.20
2022-12-26T00:46:28.208Z,12.20
2022-12-26T00:48:54.935Z,12.20
2022-12-26T00:51:22.135Z,12.20
2022-12-26T00:53:49.066Z,12.00
2022-12-26T00:56:15.993Z,12.10
2022-12-26T00:58:42.721Z,12.00
2022-12-26T01:01:15.762Z,12.10
2022-12-26T01:03:44.182Z,12.20
2022-12-26T01:06:10.831Z,12.20
2022-12-26T01:08:37.875Z,12.20
2022-12-26T01:11:07.383Z,12.20
2022-12-26T01:13:34.531Z,12.20
2022-12-26T01:16:01.950Z,12.00
2022-12-26T01:18:29.149Z,11.90
2022-12-26T01:21:07.286Z,12.00
2022-12-26T01:23:34.016Z,11.90
2022-12-26T01:26:17.201Z,11.90
2022-12-26T01:28:51.267Z,11.90
2022-12-26T01:31:18.611Z,11.70
2022-12-26T01:33:45.358Z,11.70
2022-12-26T01:36:12.524Z,11.70
2022-12-26T01:38:39.099Z,11.70
2022-12-26T01:41:19.266Z,11.60
2022-12-26T01:44:24.790Z,11.50
2022-12-26T01:46:51.993Z,11.50
2022-12-26T01:49:21.615Z,11.50
2022-12-26T01:51:56.558Z,11.50
2022-12-26T01:54:38.036Z,11.20
2022-12-26T01:57:19.303Z,11.20
2022-12-26T01:59:47.050Z,11.10
2022-12-26T02:02:14.329Z,11.10
2022-12-26T02:05:05.130Z,11.10
2022-12-26T02:07:35.054Z,11.10
2022-12-26T02:10:02.426Z,11.10
2022-12-26T02:12:33.915Z,11.10
2022-12-26T02:15:10.409Z,11.10
2022-12-26T02:17:38.177Z,11.10
2022-12-26T02:20:18.759Z,11.10
2022-12-26T02:23:15.292Z,11.20
2022-12-26T02:25:53.467Z,11.10
2022-12-26T02:28:29.259Z,11.10
2022-12-26T02:31:19.155Z,11.10
2022-12-26T02:34:03.360Z,11.00
2022-12-26T02:36:41.858Z,11.00
2022-12-26T02:39:44.297Z,11.00
2022-12-26T02:42:17.343Z,11.10
2022-12-26T02:45:20.811Z,11.10
2022-12-26T02:48:24.735Z,11.10
2022-12-26T02:51:35.097Z,11.10
2022-12-26T02:54:34.890Z,11.00
2022-12-26T02:57:27.028Z,11.00
2022-12-26T03:00:38.429Z,11.00
2022-12-26T03:03:26.388Z,11.00
2022-12-26T03:06:54.894Z,11.00
2022-12-26T03:09:46.217Z,11.00
2022-12-26T03:13:00.940Z,11.00
2022-12-26T03:15:51.087Z,11.00
2022-12-26T03:18:19.040Z,11.00
2022-12-26T03:21:07.384Z,11.00
2022-12-26T03:23:36.089Z,11.00
2022-12-26T03:26:27.772Z,11.00
2022-12-26T03:29:18.694Z,11.00
2022-12-26T03:31:45.729Z,10.90
2022-12-26T03:34:18.580Z,10.90
2022-12-26T03:37:13.176Z,10.90
2022-12-26T03:40:23.111Z,10.90
2022-12-26T03:43:17.982Z,10.90
2022-12-26T03:46:30.474Z,10.90
2022-12-26T03:49:33.708Z,10.80
2022-12-26T03:52:22.061Z,10.80
2022-12-26T03:55:21.307Z,10.90
2022-12-26T03:58:23.471Z,10.90
2022-12-26T04:01:09.806Z,10.80
2022-12-26T04:03:58.617Z,10.80
2022-12-26T04:06:50.335Z,10.70
2022-12-26T04:09:55.082Z,10.70
2022-12-26T04:12:43.586Z,10.70
2022-12-26T04:15:49.223Z,10.70
2022-12-26T04:18:40.719Z,10.70
2022-12-26T04:21:45.622Z,10.60
2022-12-26T04:24:46.377Z,10.70
2022-12-26T04:27:34.880Z,10.60
2022-12-26T04:30:19.974Z,10.60
2022-12-26T04:33:07.915Z,10.60
2022-12-26T04:36:32.775Z,10.60
2022-12-26T04:39:20.797Z,10.60
2022-12-26T04:42:07.818Z,10.60
2022-12-26T04:44:35.828Z,10.70
2022-12-26T04:47:02.392Z,10.70
2022-12-26T04:49:47.518Z,10.70
2022-12-26T04:52:14.964Z,10.60
2022-12-26T04:54:42.382Z,10.60
2022-12-26T04:57:10.863Z,10.60
2022-12-26T04:59:37.460Z,10.60
2022-12-26T05:02:22.875Z,10.50
2022-12-26T05:05:08.115Z,10.60
2022-12-26T05:07:55.692Z,10.60
2022-12-26T05:10:31.844Z,10.70
2022-12-26T05:12:58.377Z,10.70
2022-12-26T05:15:24.996Z,10.70
2022-12-26T05:18:10.412Z,10.60
2022-12-26T05:20:39.483Z,10.60
2022-12-26T05:23:35.189Z,10.70
2022-12-26T05:26:20.588Z,10.60
2022-12-26T05:28:53.589Z,10.60
2022-12-26T05:31:20.231Z,10.70
2022-12-26T05:34:05.720Z,10.70
2022-12-26T05:36:38.975Z,10.70
2022-12-26T05:39:07.015Z,10.70
2022-12-26T05:41:33.581Z,10.70
2022-12-26T05:44:00.150Z,10.70
2022-12-26T05:46:26.847Z,10.60
2022-12-26T05:48:53.467Z,10.60
2022-12-26T05:51:20.045Z,10.70
2022-12-26T05:53:48.222Z,10.70
2022-12-26T05:56:16.600Z,10.70
2022-12-26T05:58:43.478Z,10.70
2022-12-26T06:01:15.671Z,10.60
2022-12-26T06:03:43.737Z,10.60
2022-12-26T06:06:10.690Z,10.60
2022-12-26T06:08:37.527Z,10.60
2022-12-26T06:11:09.200Z,10.50
2022-12-26T06:13:35.794Z,10.60
2022-12-26T06:16:07.219Z,10.60
2022-12-26T06:18:34.341Z,10.70
2022-12-26T06:21:08.166Z,10.60
2022-12-26T06:23:35.436Z,10.70
2022-12-26T06:26:02.129Z,10.70
2022-12-26T06:28:29.026Z,10.70
2022-12-26T06:31:05.698Z,10.70
2022-12-26T06:33:32.536Z,10.80
2022-12-26T06:36:07.691Z,10.70
2022-12-26T06:38:34.307Z,10.80
2022-12-26T06:41:01.235Z,10.70
2022-12-26T06:43:27.900Z,10.70
2022-12-26T06:45:56.240Z,10.60
2022-12-26T06:48:23.291Z,10.60
2022-12-26T06:50:50.153Z,10.60
2022-12-26T06:53:16.757Z,10.50
2022-12-26T06:55:43.339Z,10.40
2022-12-26T06:58:10.733Z,10.40
2022-12-26T07:00:37.518Z,10.30
2022-12-26T07:03:04.301Z,10.20
2022-12-26T07:05:30.963Z,10.30
2022-12-26T07:07:57.536Z,10.20
2022-12-26T07:10:24.080Z,10.20
2022-12-26T07:12:50.630Z,10.20
2022-12-26T07:15:17.274Z,10.20
2022-12-26T07:17:43.868Z,10.20
2022-12-26T07:20:11.336Z,10.20
2022-12-26T07:22:38.482Z,10.20
2022-12-26T07:25:05.437Z,10.20
2022-12-26T07:27:31.989Z,10.30
2022-12-26T07:29:58.558Z,10.20
2022-12-26T07:32:25.102Z,10.20
2022-12-26T07:34:51.683Z,10.30
2022-12-26T07:37:18.267Z,10.20
2022-12-26T07:39:44.837Z,10.30
2022-12-26T07:42:11.454Z,10.30
2022-12-26T07:44:39.242Z,10.30
2022-12-26T07:47:05.817Z,10.30
2022-12-26T07:49:32.592Z,10.20
2022-12-26T07:51:59.169Z,10.30
2022-12-26T07:54:28.114Z,10.30
2022-12-26T07:57:09.006Z,10.40
2022-12-26T07:59:41.217Z,10.40
2022-12-26T08:02:10.598Z,10.40
2022-12-26T08:04:38.258Z,10.40
2022-12-26T08:07:04.798Z,10.40
2022-12-26T08:09:31.857Z,10.30
2022-12-26T08:11:58.387Z,10.30
2022-12-26T08:14:24.917Z,10.40
2022-12-26T08:16:53.543Z,10.30
2022-12-26T08:19:20.445Z,10.30
2022-12-26T08:21:46.986Z,10.30
2022-12-26T08:24:14.910Z,10.30
2022-12-26T08:26:41.566Z,10.30
2022-12-26T08:29:09.882Z,10.30
2022-12-26T08:31:36.446Z,10.40
2022-12-26T08:34:03.047Z,10.40
2022-12-26T08:36:29.648Z,10.50
2022-12-26T08:38:57.496Z,10.60
2022-12-26T08:41:24.428Z,10.70
2022-12-26T08:44:25.705Z,10.80
2022-12-26T08:46:38.889Z,10.80
2022-12-26T08:49:05.608Z,10.80
2022-12-26T08:51:32.153Z,10.80
2022-12-26T08:53:58.712Z,10.80
2022-12-26T08:56:27.014Z,10.80
2022-12-26T08:58:53.661Z,11.00
2022-12-26T09:01:23.795Z,10.90
2022-12-26T09:03:58.841Z,11.00
2022-12-26T09:06:26.379Z,11.00
2022-12-26T09:08:52.995Z,10.90
2022-12-26T09:11:22.853Z,11.00
2022-12-26T09:13:49.421Z,11.00
2022-12-26T09:16:18.761Z,11.00
2022-12-26T09:18:46.807Z,11.10
2022-12-26T09:21:15.601Z,11.10
2022-12-26T09:23:43.684Z,11.10
2022-12-26T09:26:19.020Z,11.10
2022-12-26T09:28:47.039Z,11.10
2022-12-26T09:31:17.128Z,11.20
2022-12-26T09:33:44.409Z,11.30
2022-12-26T09:36:15.413Z,11.20
2022-12-26T09:38:43.020Z,11.30
2022-12-26T09:41:36.252Z,11.30
2022-12-26T09:44:22.341Z,11.30
2022-12-26T09:46:57.790Z,11.30
2022-12-26T09:49:30.212Z,11.30
2022-12-26T09:52:05.778Z,11.30
2022-12-26T09:54:41.136Z,11.30
2022-12-26T09:57:15.688Z,11.30
2022-12-26T09:59:54.140Z,11.30
2022-12-26T10:02:24.431Z,11.10
2022-12-26T10:04:52.402Z,11.20
2022-12-26T10:07:39.615Z,11.10
2022-12-26T10:10:09.011Z,11.10
2022-12-26T10:12:48.513Z,11.10
2022-12-26T10:15:43.191Z,11.10
2022-12-26T10:18:21.766Z,11.20
2022-12-26T10:21:05.807Z,11.30
2022-12-26T10:23:33.569Z,11.40
2022-12-26T10:26:04.454Z,11.40
2022-12-26T10:28:37.595Z,11.40
2022-12-26T10:31:10.936Z,11.40
2022-12-26T10:33:53.688Z,11.40
2022-12-26T10:36:29.326Z,11.40
2022-12-26T10:38:59.035Z,11.40
2022-12-26T10:41:31.114Z,11.40
2022-12-26T10:43:57.836Z,11.50
2022-12-26T10:46:33.415Z,11.50
2022-12-26T10:49:00.253Z,11.50
2022-12-26T10:51:27.440Z,11.50
2022-12-26T10:53:54.656Z,11.50
2022-12-26T10:56:23.529Z,11.40
2022-12-26T10:59:00.007Z,11.50
2022-12-26T11:01:33.870Z,11.50
2022-12-26T11:04:03.173Z,11.80
2022-12-26T11:06:37.323Z,11.80
2022-12-26T11:09:04.652Z,11.80
2022-12-26T11:11:48.111Z,11.60
2022-12-26T11:14:40.151Z,11.60
2022-12-26T11:17:12.274Z,11.50
2022-12-26T11:19:42.673Z,11.60
2022-12-26T11:22:24.311Z,11.90
2022-12-26T11:25:09.460Z,12.20
2022-12-26T11:27:38.008Z,12.20
2022-12-26T11:30:32.419Z,12.00
2022-12-26T11:33:19.523Z,11.80
2022-12-26T11:36:02.784Z,11.80
2022-12-26T11:38:44.488Z,11.80
2022-12-26T11:41:32.468Z,11.80
2022-12-26T11:44:03.063Z,11.50
2022-12-26T11:46:51.230Z,11.30
2022-12-26T11:49:20.880Z,11.20
2022-12-26T11:51:52.884Z,11.10
2022-12-26T11:54:30.592Z,11.30
2022-12-26T11:57:17.739Z,11.50
2022-12-26T11:59:45.232Z,11.60
2022-12-26T12:02:28.649Z,11.50
2022-12-26T12:05:01.745Z,11.80
2022-12-26T12:07:34.202Z,12.10
2022-12-26T12:10:34.362Z,11.90
2022-12-26T12:13:09.792Z,12.50
2022-12-26T12:16:26.393Z,12.20
2022-12-26T12:19:13.508Z,11.60
2022-12-26T12:21:44.033Z,11.40
2022-12-26T12:24:39.923Z,11.10
2022-12-26T12:27:09.416Z,11.00
2022-12-26T12:29:54.221Z,10.80
2022-12-26T12:32:29.061Z,10.70
2022-12-26T12:35:31.717Z,10.50
2022-12-26T12:38:17.311Z,10.50
2022-12-26T12:41:06.370Z,10.40
2022-12-26T12:43:49.300Z,10.40
2022-12-26T12:46:54.570Z,10.40
2022-12-26T12:49:58.274Z,10.40
2022-12-26T12:52:55.495Z,10.30
2022-12-26T12:55:31.516Z,10.30
2022-12-26T12:58:24.169Z,10.20
2022-12-26T13:00:57.093Z,10.20
2022-12-26T13:03:46.598Z,10.10
2022-12-26T13:06:22.107Z,10.00
2022-12-26T13:09:02.061Z,9.70
2022-12-26T13:11:34.633Z,9.50
2022-12-26T13:14:07.369Z,9.40
2022-12-26T13:16:43.350Z,9.30
2022-12-26T13:19:19.681Z,9.20
2022-12-26T13:21:48.476Z,9.10
2022-12-26T13:24:27.649Z,9.10
2022-12-26T13:27:03.183Z,8.90
2022-12-26T13:29:44.299Z,8.80
2022-12-26T13:32:24.957Z,8.80
2022-12-26T13:34:53.930Z,8.80
2022-12-26T13:37:32.691Z,8.70
2022-12-26T13:40:01.656Z,8.70
2022-12-26T13:42:56.370Z,8.70
2022-12-26T13:45:38.060Z,8.80
2022-12-26T13:48:16.925Z,8.70
2022-12-26T13:51:04.162Z,8.80
2022-12-26T13:53:33.744Z,8.90
2022-12-26T13:56:18.704Z,8.90
2022-12-26T13:58:57.964Z,8.90
2022-12-26T14:01:46.443Z,8.90
2022-12-26T14:04:52.228Z,9.00
2022-12-26T14:07:40.455Z,9.00
2022-12-26T14:10:20.210Z,8.90
2022-12-26T14:13:30.868Z,9.00
2022-12-26T14:16:07.015Z,9.00
2022-12-26T14:18:56.283Z,8.90
2022-12-26T14:21:37.389Z,8.90
2022-12-26T14:24:13.102Z,8.90
2022-12-26T14:26:48.901Z,8.90
2022-12-26T14:29:46.623Z,8.90
2022-12-26T14:32:28.935Z,8.90
2022-12-26T14:35:07.467Z,8.80
2022-12-26T14:38:18.089Z,8.70
2022-12-26T14:41:03.719Z,8.70
2022-12-26T14:43:34.742Z,8.60
2022-12-26T14:46:03.685Z,8.60
2022-12-26T14:48:30.207Z,8.60
2022-12-26T14:51:02.904Z,8.60
2022-12-26T14:53:33.427Z,8.60
2022-12-26T14:56:11.839Z,8.50
2022-12-26T14:58:47.933Z,8.40
2022-12-26T15:01:17.971Z,8.30
2022-12-26T15:03:44.960Z,8.20
2022-12-26T15:06:20.641Z,8.10
2022-12-26T15:08:57.982Z,8.00
2022-12-26T15:12:02.505Z,8.00
2022-12-26T15:15:08.089Z,7.90
2022-12-26T15:17:53.283Z,7.80
2022-12-26T15:20:38.274Z,7.70
2022-12-26T15:23:26.328Z,7.70
2022-12-26T15:26:20.532Z,7.60
2022-12-26T15:28:55.891Z,7.60
2022-12-26T15:31:32.126Z,7.60
2022-12-26T15:34:40.217Z,7.50
2022-12-26T15:37:17.284Z,7.50
2022-12-26T15:39:51.174Z,7.40
2022-12-26T15:42:20.760Z,7.50
2022-12-26T15:45:09.020Z,7.50
2022-12-26T15:47:58.239Z,7.50
2022-12-26T15:50:52.839Z,7.50
2022-12-26T15:53:49.511Z,7.40
2022-12-26T15:56:58.542Z,7.40
2022-12-26T15:59:55.931Z,7.30
2022-12-26T16:02:25.626Z,7.20
2022-12-26T16:04:58.399Z,7.20
2022-12-26T16:07:40.685Z,7.20
2022-12-26T16:10:33.635Z,7.10
2022-12-26T16:13:12.555Z,7.00
2022-12-26T16:15:46.627Z,7.00
2022-12-26T16:18:16.697Z,6.90
2022-12-26T16:21:04.131Z,6.80
2022-12-26T16:23:32.807Z,6.80
2022-12-26T16:26:00.537Z,6.70
2022-12-26T16:28:37.028Z,6.60
2022-12-26T16:31:04.775Z,6.50
2022-12-26T16:33:42.342Z,6.60
2022-12-26T16:36:10.995Z,6.40
2022-12-26T16:38:37.941Z,6.30
2022-12-26T16:41:27.960Z,6.40
2022-12-26T16:43:56.412Z,6.30
2022-12-26T16:46:26.375Z,6.30
2022-12-26T16:48:59.526Z,6.30
2022-12-26T16:51:45.390Z,6.30
2022-12-26T16:54:20.870Z,6.20
2022-12-26T16:56:50.595Z,6.10
2022-12-26T16:59:21.405Z,5.90
2022-12-26T17:01:56.892Z,5.80
2022-12-26T17:04:26.223Z,5.80
2022-12-26T17:06:57.183Z,5.80
2022-12-26T17:09:26.974Z,5.80
2022-12-26T17:12:00.229Z,5.80
2022-12-26T17:14:31.670Z,5.70
2022-12-26T17:17:00.240Z,5.50
2022-12-26T17:19:32.345Z,5.40
2022-12-26T17:22:29.345Z,5.20
2022-12-26T17:25:17.228Z,5.10
2022-12-26T17:27:49.414Z,5.00
2022-12-26T17:30:29.409Z,4.90
2022-12-26T17:33:02.665Z,4.80
2022-12-26T17:35:47.108Z,4.70
2022-12-26T17:38:26.985Z,4.60
2022-12-26T17:40:56.203Z,4.60
2022-12-26T17:43:31.335Z,4.60
2022-12-26T17:45:58.416Z,4.50
2022-12-26T17:48:25.187Z,4.30
2022-12-26T17:51:00.137Z,4.30
2022-12-26T17:53:33.050Z,4.40
2022-12-26T17:56:02.684Z,4.40
2022-12-26T17:58:29.630Z,4.40
2022-12-26T18:00:56.462Z,4.40
2022-12-26T18:03:23.254Z,4.40
2022-12-26T18:05:49.895Z,4.40
2022-12-26T18:08:34.357Z,4.40
2022-12-26T18:11:03.015Z,4.30
2022-12-26T18:13:29.601Z,4.20
2022-12-26T18:15:57.651Z,4.20
2022-12-26T18:18:47.182Z,4.10
2022-12-26T18:21:15.552Z,4.10
2022-12-26T18:23:43.246Z,4.10
2022-12-26T18:26:20.109Z,4.10
2022-12-26T18:28:49.861Z,4.00
2022-12-26T18:31:16.906Z,3.90
2022-12-26T18:33:43.505Z,3.90
2022-12-26T18:36:14.464Z,3.90
2022-12-26T18:38:41.432Z,3.80
2022-12-26T18:41:13.751Z,3.80
2022-12-26T18:43:40.405Z,3.60
2022-12-26T18:46:20.457Z,3.50
2022-12-26T18:48:47.524Z,3.40
2022-12-26T18:51:14.159Z,3.30
2022-12-26T18:53:40.914Z,3.40
2022-12-26T18:56:12.382Z,3.50
2022-12-26T18:58:38.934Z,3.50
2022-12-26T19:01:06.227Z,3.60
2022-12-26T19:03:32.925Z,3.50
2022-12-26T19:05:59.521Z,3.50
2022-12-26T19:08:26.112Z,3.50
2022-12-26T19:10:52.677Z,3.50
2022-12-26T19:13:19.397Z,3.60
2022-12-26T19:15:46.993Z,3.60
2022-12-26T19:18:13.818Z,3.50
2022-12-26T19:20:44.411Z,3.50
2022-12-26T19:23:11.697Z,3.50
2022-12-26T19:25:38.456Z,3.50
2022-12-26T19:28:05.142Z,3.50
2022-12-26T19:30:38.327Z,3.50
2022-12-26T19:33:05.518Z,3.50
2022-12-26T19:35:32.314Z,3.60
2022-12-26T19:37:59.215Z,3.50
2022-12-26T19:40:25.844Z,3.60
2022-12-26T19:42:53.180Z,3.60
2022-12-26T19:45:19.829Z,3.70
2022-12-26T19:47:46.537Z,3.60
2022-12-26T19:50:13.734Z,3.70
2022-12-26T19:52:41.194Z,3.70
2022-12-26T19:55:10.490Z,3.60
2022-12-26T19:57:37.025Z,3.70
2022-12-26T20:00:05.182Z,3.70
2022-12-26T20:02:31.861Z,3.70
2022-12-26T20:04:58.570Z,3.70
2022-12-26T20:07:25.130Z,3.70
2022-12-26T20:09:51.936Z,3.70
2022-12-26T20:12:18.505Z,3.70
2022-12-26T20:14:45.066Z,3.70
2022-12-26T20:17:13.455Z,3.70
2022-12-26T20:19:40.106Z,3.70
2022-12-26T20:22:07.241Z,3.80
2022-12-26T20:24:34.420Z,3.70
2022-12-26T20:27:01.786Z,3.70
2022-12-26T20:29:28.517Z,3.70
2022-12-26T20:31:55.329Z,3.70
2022-12-26T20:34:22.101Z,3.70
2022-12-26T20:36:48.724Z,3.70
2022-12-26T20:39:17.611Z,3.80
2022-12-26T20:41:44.777Z,3.80
2022-12-26T20:44:16.041Z,3.90
2022-12-26T20:46:43.340Z,3.90
2022-12-26T20:49:10.089Z,4.00
2022-12-26T20:51:39.253Z,3.90
2022-12-26T20:54:08.093Z,4.00
2022-12-26T20:56:36.046Z,4.00
2022-12-26T20:59:03.366Z,4.00
2022-12-26T21:01:30.198Z,4.10
2022-12-26T21:03:57.775Z,4.10
2022-12-26T21:06:28.333Z,4.30
2022-12-26T21:08:56.371Z,4.30
2022-12-26T21:11:32.063Z,4.20
2022-12-26T21:14:07.345Z,4.10
2022-12-26T21:16:37.611Z,4.20
2022-12-26T21:19:10.852Z,4.10
2022-12-26T21:21:43.760Z,4.10
2022-12-26T21:24:31.018Z,3.90
2022-12-26T21:26:57.861Z,3.90
2022-12-26T21:29:35.402Z,3.80
2022-12-26T21:32:03.721Z,3.90
2022-12-26T21:34:32.246Z,3.80
2022-12-26T21:37:18.268Z,3.90
2022-12-26T21:39:45.566Z,4.00
2022-12-26T21:42:12.247Z,3.90
2022-12-26T21:44:39.444Z,3.90
2022-12-26T21:47:07.900Z,3.90
2022-12-26T21:49:34.936Z,4.00
2022-12-26T21:52:01.567Z,4.00
2022-12-26T21:54:49.296Z,3.90
2022-12-26T21:57:17.045Z,3.90
2022-12-26T21:59:56.109Z,4.00
2022-12-26T22:02:49.595Z,4.00
2022-12-26T22:05:17.824Z,3.90
2022-12-26T22:07:44.753Z,4.00
2022-12-26T22:10:34.902Z,4.10
2022-12-26T22:13:02.894Z,4.00
2022-12-26T22:15:55.506Z,4.00
2022-12-26T22:18:22.066Z,4.00
2022-12-26T22:20:48.674Z,4.00
2022-12-26T22:23:15.301Z,4.10
2022-12-26T22:25:42.183Z,4.00
2022-12-26T22:28:08.799Z,4.00
2022-12-26T22:30:35.391Z,3.90
2022-12-26T22:33:01.929Z,3.90
2022-12-26T22:35:28.485Z,4.00
2022-12-26T22:37:55.063Z,3.90
2022-12-26T22:40:21.683Z,3.90
2022-12-26T22:42:48.237Z,3.90
2022-12-26T22:45:14.855Z,3.90
2022-12-26T22:47:41.431Z,3.90
2022-12-26T22:50:08.488Z,3.90
2022-12-26T22:52:35.039Z,4.10
2022-12-26T22:55:01.596Z,4.00
2022-12-26T22:57:28.181Z,4.00
2022-12-26T23:00:10.934Z,4.00
2022-12-26T23:02:38.165Z,3.90
2022-12-26T23:05:05.467Z,3.80
2022-12-26T23:07:32.313Z,4.00
2022-12-26T23:09:59.151Z,3.90
2022-12-26T23:12:43.807Z,4.00
2022-12-26T23:15:19.447Z,4.00
2022-12-26T23:18:28.721Z,4.00
2022-12-26T23:21:14.913Z,4.00
2022-12-26T23:23:41.743Z,4.10
2022-12-26T23:26:08.320Z,4.00
2022-12-26T23:28:53.886Z,4.10
2022-12-26T23:31:20.468Z,4.10
2022-12-26T23:33:47.016Z,4.10
2022-12-26T23:36:13.592Z,4.10
2022-12-26T23:38:40.129Z,4.20
2022-12-26T23:41:06.707Z,4.20
2022-12-26T23:43:33.526Z,4.30
2022-12-26T23:46:00.972Z,4.20
2022-12-26T23:48:27.794Z,4.10
2022-12-26T23:51:02.663Z,4.20
2022-12-26T23:53:29.335Z,4.20
2022-12-26T23:55:56.468Z,4.20
2022-12-26T23:58:23.063Z,4.20
